Time;durP1;ratioP1;P1;durP2;ratioP2;P2;SDS_P1;SDS_P2;PMS_P1;PMS_P2;Temp;Humidity;BMP_temperature;BMP_pressure;BME280_temperature;BME280_humidity;BME280_pressure;Samples;Min_cycle;Max_cycle;Signal;HPM_P1;HPM_P2
2022/01/06 00:00:58;;;;;;;8.67;6.20;;;;;;;-143.84;81.50;45077.63;5030762;28;20445;-75
2022/01/06 00:03:27;;;;;;;12.67;6.50;;;;;;;-143.84;82.15;45079.53;5030406;28;20439;-75
2022/01/06 00:05:54;;;;;;;8.67;6.10;;;;;;;-143.84;82.24;45070.00;5030509;28;20435;-74
2022/01/06 00:08:22;;;;;;;9.77;6.57;;;;;;;-143.84;82.19;45047.16;5030535;28;20951;-75
2022/01/06 00:10:51;;;;;;;9.00;6.10;;;;;;;-143.84;82.67;45068.13;5030380;28;20447;-75
2022/01/06 00:13:28;;;;;;;13.97;6.57;;;;;;;-143.84;82.33;45056.69;5030191;28;20830;-75
2022/01/06 00:16:07;;;;;;;8.73;6.50;;;;;;;-143.84;82.47;45075.72;5029930;28;20495;-74
2022/01/06 00:23:06;;;;;;;9.93;5.90;;;;;;;-143.84;82.35;45045.25;5030433;28;20442;-74
2022/01/06 00:24:12;;;;;;;15.03;6.00;;;;;;;-143.84;82.23;45052.88;5030082;28;20787;-74
2022/01/06 00:26:42;;;;;;;8.23;6.20;;;;;;;-143.84;82.15;45037.66;5030000;28;20788;-75
2022/01/06 00:29:09;;;;;;;17.33;5.40;;;;;;;-143.84;82.40;45043.34;5029965;28;20439;-74
2022/01/06 00:31:38;;;;;;;10.47;6.77;;;;;;;-143.84;82.18;45047.16;5030009;28;20451;-74
2022/01/06 00:34:10;;;;;;;9.40;5.97;;;;;;;-143.84;82.29;45083.34;5030194;28;20898;-74
2022/01/06 00:36:37;;;;;;;9.53;5.80;;;;;;;-143.84;82.24;45062.41;5030072;28;20454;-74
2022/01/06 00:39:04;;;;;;;12.20;6.27;;;;;;;-143.84;82.34;45035.75;5029822;28;20448;-74
2022/01/06 00:41:34;;;;;;;9.37;6.57;;;;;;;-143.84;82.09;45030.03;5029850;28;20821;-75
2022/01/06 00:44:04;;;;;;;13.97;6.47;;;;;;;-143.84;82.62;45047.16;5029563;28;20469;-74
2022/01/06 00:46:31;;;;;;;10.03;6.30;;;;;;;-143.84;82.44;45073.81;5030154;28;20945;-75
2022/01/06 00:48:59;;;;;;;8.47;6.20;;;;;;;-143.84;82.27;45054.78;5029793;28;21315;-75
2022/01/06 00:51:26;;;;;;;6.93;6.33;;;;;;;-143.84;82.40;45043.34;5030036;28;20512;-75
2022/01/06 00:53:53;;;;;;;17.60;5.60;;;;;;;-143.84;82.28;45070.00;5030097;28;20484;-75
2022/01/06 00:56:20;;;;;;;12.90;5.63;;;;;;;-143.84;82.41;45083.34;5029654;28;20453;-75
2022/01/06 00:58:48;;;;;;;13.20;6.00;;;;;;;-143.84;82.62;45043.34;5029823;28;20445;-75
2022/01/06 01:01:17;;;;;;;20.53;6.47;;;;;;;-143.84;82.41;45066.22;5029483;28;20443;-75
2022/01/06 01:03:44;;;;;;;6.80;5.60;;;;;;;-143.84;82.11;45064.31;5029477;28;20458;-75
2022/01/06 01:06:11;;;;;;;7.30;6.60;;;;;;;-143.84;82.23;45056.69;5029482;28;20453;-75
2022/01/06 01:08:39;;;;;;;9.00;5.63;;;;;;;-143.84;81.99;45083.34;5029456;28;20444;-74
2022/01/06 01:11:07;;;;;;;10.43;6.00;;;;;;;-143.84;81.84;45064.31;5029524;28;20444;-75
2022/01/06 01:13:42;;;;;;;8.67;6.30;;;;;;;-143.84;81.78;45075.72;5029368;28;20484;-74
2022/01/06 01:16:21;;;;;;;7.30;6.00;;;;;;;-143.84;81.69;45098.56;5029487;28;20489;-73
2022/01/06 01:18:50;;;;;;;12.73;5.87;;;;;;;-143.84;81.68;45041.44;5029728;28;20927;-73
2022/01/06 01:21:17;;;;;;;9.30;6.00;;;;;;;-143.84;81.44;45060.50;5029697;28;20543;-73
2022/01/06 01:23:44;;;;;;;10.63;6.17;;;;;;;-143.84;81.70;45083.34;5029409;28;20438;-73
2022/01/06 01:26:12;;;;;;;7.47;6.00;;;;;;;-143.84;81.58;45079.53;5029656;28;20452;-73
2022/01/06 01:28:44;;;;;;;8.87;5.77;;;;;;;-143.84;81.82;45087.16;5029455;28;20494;-73
2022/01/06 01:31:24;;;;;;;10.33;5.30;;;;;;;-143.84;81.73;45087.16;5029966;28;20445;-73
2022/01/06 01:33:56;;;;;;;9.70;6.77;;;;;;;-143.84;81.43;45085.25;5029091;28;20586;-73
2022/01/06 01:36:23;;;;;;;9.03;5.60;;;;;;;-143.84;81.64;45066.22;5029453;28;20985;-73
2022/01/06 01:38:50;;;;;;;12.07;6.33;;;;;;;-143.84;81.38;45075.72;5029618;28;20507;-73
2022/01/06 01:41:18;;;;;;;7.47;5.13;;;;;;;-143.84;81.27;45094.78;5029543;28;20449;-73
2022/01/06 01:43:47;;;;;;;7.70;5.50;;;;;;;-143.84;81.52;45045.25;5029599;28;20445;-73
2022/01/06 01:46:17;;;;;;;9.40;5.47;;;;;;;-143.84;81.43;45085.25;5029366;28;20442;-73
2022/01/06 01:48:49;;;;;;;8.63;4.93;;;;;;;-143.84;81.72;45041.44;5029243;28;20504;-73
2022/01/06 01:51:18;;;;;;;9.17;5.73;;;;;;;-143.84;81.19;45083.34;5029204;28;21057;-73
2022/01/06 01:53:45;;;;;;;15.43;6.50;;;;;;;-143.84;81.24;45064.31;5028903;28;20484;-73
2022/01/06 01:56:13;;;;;;;7.30;5.97;;;;;;;-143.84;81.47;45037.66;5029505;28;20458;-73
2022/01/06 01:58:41;;;;;;;10.77;6.30;;;;;;;-143.84;81.33;45064.31;5029247;28;20540;-73
2022/01/06 02:01:09;;;;;;;18.03;6.30;;;;;;;-143.84;81.24;45092.88;5029322;28;20470;-73
2022/01/06 02:03:36;;;;;;;11.30;5.70;;;;;;;-143.84;81.38;45100.47;5029230;28;20524;-73
2022/01/06 02:06:03;;;;;;;8.97;5.90;;;;;;;-143.84;81.36;45092.88;5029279;28;20444;-73
2022/01/06 02:08:32;;;;;;;6.03;5.43;;;;;;;-143.84;81.50;45026.22;5028982;28;20443;-73
2022/01/06 02:11:01;;;;;;;10.17;6.80;;;;;;;-143.84;81.30;45075.72;5029118;28;20450;-73
2022/01/06 02:13:30;;;;;;;14.30;5.80;;;;;;;-143.84;81.50;45066.22;5028851;28;20571;-73
2022/01/06 02:15:58;;;;;;;8.10;5.67;;;;;;;-143.84;81.30;45043.34;5030195;28;21002;-80
2022/01/06 02:18:27;;;;;;;8.70;5.80;;;;;;;-143.84;81.25;45039.53;5030978;28;20481;-81
2022/01/06 02:20:56;;;;;;;10.53;5.80;;;;;;;-143.84;81.54;45071.91;5031498;28;20465;-80
2022/01/06 02:23:23;;;;;;;10.60;5.47;;;;;;;-143.84;81.48;45068.13;5031102;28;20497;-80
2022/01/06 02:25:51;;;;;;;8.67;6.40;;;;;;;-143.84;81.31;45102.38;5031664;28;20443;-80
2022/01/06 02:28:19;;;;;;;14.30;5.73;;;;;;;-143.84;81.58;45070.00;5031571;28;20444;-80
2022/01/06 02:30:50;;;;;;;9.23;5.50;;;;;;;-143.84;81.38;45081.44;5031293;28;20437;-80
2022/01/06 02:33:19;;;;;;;12.10;6.70;;;;;;;-143.84;81.21;45087.16;5029449;28;20497;-75
2022/01/06 02:35:47;;;;;;;8.83;6.23;;;;;;;-143.84;81.36;45054.78;5028311;28;20453;-74
2022/01/06 02:38:16;;;;;;;7.60;5.47;;;;;;;-143.84;81.56;45060.50;5028461;28;21247;-75
2022/01/06 02:40:44;;;;;;;12.57;6.53;;;;;;;-143.84;81.79;45108.09;5028471;28;20461;-74
2022/01/06 02:43:14;;;;;;;6.80;6.20;;;;;;;-143.84;81.60;45079.53;5028690;28;20860;-75
2022/01/06 02:45:41;;;;;;;15.40;5.70;;;;;;;-143.84;81.65;45054.78;5030002;28;21023;-74
2022/01/06 02:48:09;;;;;;;14.07;5.17;;;;;;;-143.84;81.60;45062.41;5032086;28;20447;-74
2022/01/06 02:50:39;;;;;;;7.63;5.90;;;;;;;-143.84;81.95;45070.00;5031821;28;20443;-74
2022/01/06 02:53:08;;;;;;;10.00;6.03;;;;;;;-143.84;81.70;45064.31;5032270;28;20443;-75
2022/01/06 02:55:40;;;;;;;8.23;5.70;;;;;;;-143.84;81.87;45083.34;5031938;28;20449;-75
2022/01/06 02:58:07;;;;;;;8.43;5.87;;;;;;;-143.84;82.10;45045.25;5032070;28;20447;-75
2022/01/06 03:00:35;;;;;;;9.17;6.90;;;;;;;-143.84;81.81;45068.13;5031955;28;20516;-74
2022/01/06 03:03:03;;;;;;;14.53;6.10;;;;;;;-143.84;82.28;45071.91;5031715;28;20495;-74
2022/01/06 03:05:30;;;;;;;8.37;5.87;;;;;;;-143.84;82.11;45070.00;5031754;28;21113;-74
2022/01/06 03:07:57;;;;;;;8.60;6.30;;;;;;;-143.84;82.33;45049.06;5031737;28;20846;-74
2022/01/06 03:10:26;;;;;;;9.50;5.70;;;;;;;-143.84;82.24;45049.06;5031609;28;20446;-74
2022/01/06 03:12:55;;;;;;;6.10;5.20;;;;;;;-143.84;82.87;45060.50;5031637;28;20515;-74
2022/01/06 03:15:23;;;;;;;15.03;6.60;;;;;;;-143.84;82.74;45058.59;5030929;28;20508;-74
2022/01/06 03:17:55;;;;;;;14.10;5.93;;;;;;;-143.84;82.99;45062.41;5031204;28;20453;-74
2022/01/06 03:20:23;;;;;;;13.93;6.80;;;;;;;-143.84;82.81;45062.41;5031155;28;20462;-74
2022/01/06 03:22:50;;;;;;;7.60;6.13;;;;;;;-143.84;82.95;45050.97;5031325;28;20452;-74
2022/01/06 03:25:18;;;;;;;8.60;5.10;;;;;;;-143.84;82.72;45047.16;5031351;28;20444;-74
2022/01/06 03:27:46;;;;;;;12.80;5.30;;;;;;;-143.84;83.00;45026.22;5023281;28;20952;-74
2022/01/06 03:30:17;;;;;;;9.80;5.77;;;;;;;-143.84;82.82;45054.78;5024934;28;20505;-74
2022/01/06 03:32:44;;;;;;;14.37;6.10;;;;;;;-143.84;82.71;45062.41;5031017;28;20481;-74
2022/01/06 03:35:14;;;;;;;14.70;7.13;;;;;;;-143.84;82.70;45064.31;5030943;28;20906;-74
2022/01/06 03:37:42;;;;;;;14.20;6.10;;;;;;;-143.84;82.73;45089.06;5031067;28;20453;-74
2022/01/06 03:40:11;;;;;;;9.63;5.90;;;;;;;-143.84;83.03;45070.00;5029797;28;20516;-74
2022/01/06 03:42:39;;;;;;;13.90;5.77;;;;;;;-143.84;82.72;45071.91;5031239;28;20467;-74
2022/01/06 03:45:09;;;;;;;11.87;5.97;;;;;;;-143.84;82.82;45049.06;5030707;28;20437;-74
2022/01/06 03:47:37;;;;;;;6.17;4.97;;;;;;;-143.84;82.50;45033.84;5026200;28;20447;-74
2022/01/06 03:50:06;;;;;;;8.53;5.60;;;;;;;-143.84;82.71;45060.50;5030654;28;20454;-74
2022/01/06 03:52:33;;;;;;;13.40;6.87;;;;;;;-143.84;82.65;45077.63;5013079;28;20680;-74
2022/01/06 03:55:00;;;;;;;8.00;6.03;;;;;;;-143.84;82.79;45041.44;5026419;28;20539;-74
2022/01/06 03:57:28;;;;;;;8.83;6.30;;;;;;;-143.84;82.73;45054.78;5029830;28;20783;-74
2022/01/06 03:59:55;;;;;;;8.70;6.30;;;;;;;-143.84;82.72;45041.44;5029170;28;20450;-74
2022/01/06 04:02:23;;;;;;;14.13;6.60;;;;;;;-143.84;82.60;45035.75;5030473;28;20443;-74
2022/01/06 04:04:51;;;;;;;6.93;5.40;;;;;;;-143.84;82.87;45052.88;5030321;28;20454;-74
2022/01/06 04:07:18;;;;;;;19.80;6.20;;;;;;;-143.84;83.11;45066.22;5030251;28;20442;-74
2022/01/06 04:09:46;;;;;;;18.73;6.60;;;;;;;-143.84;83.22;45066.22;5030465;28;20443;-74
2022/01/06 04:12:13;;;;;;;15.90;6.57;;;;;;;-143.84;83.21;45045.25;5012739;28;20453;-74
2022/01/06 04:14:40;;;;;;;9.70;5.53;;;;;;;-143.84;83.09;45049.06;5030217;28;20841;-74
2022/01/06 04:17:09;;;;;;;14.53;5.63;;;;;;;-143.84;82.97;45060.50;5030168;28;20466;-74
2022/01/06 04:19:36;;;;;;;9.13;5.83;;;;;;;-143.84;82.97;45062.41;5030067;28;20449;-74
2022/01/06 04:22:06;;;;;;;8.43;5.30;;;;;;;-143.84;83.15;45035.75;5030113;28;20468;-74
2022/01/06 04:24:33;;;;;;;13.77;6.10;;;;;;;-143.84;83.47;45056.69;5012721;28;20470;-74
2022/01/06 04:27:01;;;;;;;7.47;5.57;;;;;;;-143.84;83.44;45050.97;5030308;28;20443;-74
2022/01/06 04:29:28;;;;;;;17.27;6.50;;;;;;;-143.84;83.57;45045.25;5030256;28;20977;-74
2022/01/06 04:31:55;;;;;;;6.97;5.77;;;;;;;-143.84;83.44;45052.88;5030095;28;21103;-74
2022/01/06 04:34:22;;;;;;;13.10;7.33;;;;;;;-143.84;83.28;45060.50;5030112;28;20549;-74
2022/01/06 04:36:53;;;;;;;16.33;6.57;;;;;;;-143.84;83.27;45073.81;5030121;28;20503;-74
2022/01/06 04:39:22;;;;;;;11.00;5.50;;;;;;;-143.84;83.39;45050.97;5029505;28;20528;-74
2022/01/06 04:41:49;;;;;;;10.93;5.90;;;;;;;-143.84;83.55;45070.00;5018774;28;20454;-74
2022/01/06 04:44:16;;;;;;;13.13;6.13;;;;;;;-143.84;83.46;45066.22;5029850;28;20502;-74
2022/01/06 04:46:43;;;;;;;13.93;6.73;;;;;;;-143.84;83.43;45054.78;5030678;28;20502;-74
2022/01/06 04:49:11;;;;;;;10.73;6.83;;;;;;;-143.84;83.35;45062.41;5043771;28;20532;-75
2022/01/06 04:51:38;;;;;;;14.33;7.20;;;;;;;-143.84;83.52;45031.94;5029484;28;20449;-74
2022/01/06 04:54:07;;;;;;;10.07;6.17;;;;;;;-143.84;83.49;45043.34;5029198;28;21009;-73
2022/01/06 04:56:37;;;;;;;14.50;6.50;;;;;;;-143.84;83.62;45028.13;5029804;28;20474;-75
2022/01/06 04:59:06;;;;;;;11.27;6.30;;;;;;;-143.84;83.29;45050.97;5029255;28;20544;-75
2022/01/06 05:01:33;;;;;;;11.60;6.40;;;;;;;-143.84;83.43;45071.91;5028988;28;20463;-74
2022/01/06 05:04:00;;;;;;;10.60;6.50;;;;;;;-143.84;83.88;45047.16;5029595;28;20446;-73
2022/01/06 05:06:28;;;;;;;16.07;6.70;;;;;;;-143.84;84.16;45050.97;5029387;28;20497;-74
2022/01/06 05:08:55;;;;;;;10.83;5.93;;;;;;;-143.84;83.95;45016.69;5029115;28;20446;-72
2022/01/06 05:11:22;;;;;;;18.63;6.37;;;;;;;-143.84;84.17;45047.16;5029044;28;20503;-73
2022/01/06 05:13:51;;;;;;;12.63;6.23;;;;;;;-143.84;84.12;45018.59;5032035;28;20502;-81
2022/01/06 05:16:19;;;;;;;14.73;6.23;;;;;;;-143.84;83.98;45031.94;5031276;28;20486;-81
2022/01/06 05:18:46;;;;;;;16.57;6.47;;;;;;;-143.84;83.99;45026.22;5032595;28;20438;-81
2022/01/06 05:21:13;;;;;;;10.90;6.30;;;;;;;-143.84;84.18;45018.59;5032542;28;20546;-80
2022/01/06 05:23:41;;;;;;;7.37;6.07;;;;;;;-143.84;84.06;45022.41;5031949;28;20932;-79
2022/01/06 05:26:09;;;;;;;17.13;6.90;;;;;;;-143.84;84.20;45045.25;5010544;28;20525;-80
2022/01/06 05:28:37;;;;;;;10.17;7.13;;;;;;;-143.84;84.38;45070.00;5028996;28;20508;-80
2022/01/06 05:31:05;;;;;;;12.73;6.27;;;;;;;-143.84;84.42;45016.69;5031320;28;20870;-73
2022/01/06 05:33:32;;;;;;;6.13;5.23;;;;;;;-143.84;84.30;45014.78;5028753;28;20503;-73
2022/01/06 05:36:00;;;;;;;13.23;6.23;;;;;;;-143.84;84.47;45026.22;5028956;28;20488;-73
2022/01/06 05:38:27;;;;;;;13.93;6.17;;;;;;;-143.84;84.86;45009.09;5029534;28;20815;-75
2022/01/06 05:40:55;;;;;;;16.93;6.70;;;;;;;-143.84;84.93;45018.59;5017893;28;20498;-75
2022/01/06 05:43:23;;;;;;;10.03;6.40;;;;;;;-143.84;84.82;45020.50;5019240;28;20442;-74
2022/01/06 05:45:54;;;;;;;12.90;6.07;;;;;;;-143.84;85.00;45009.09;5025340;28;20456;-75
2022/01/06 05:48:24;;;;;;;10.03;6.20;;;;;;;-143.84;85.20;45041.44;5029226;28;20455;-74
2022/01/06 05:50:51;;;;;;;13.80;6.67;;;;;;;-143.84;85.21;45007.19;5029465;28;20834;-75
2022/01/06 05:53:19;;;;;;;12.30;6.40;;;;;;;-143.84;85.22;44997.66;5028882;28;20439;-74
2022/01/06 05:55:46;;;;;;;6.67;5.90;;;;;;;-143.84;85.31;44997.66;5029277;28;20481;-75
2022/01/06 05:58:13;;;;;;;12.47;6.27;;;;;;;-143.84;85.09;45007.19;5029150;28;20459;-75
2022/01/06 06:00:40;;;;;;;15.10;6.70;;;;;;;-143.84;85.55;45007.19;5029810;28;20443;-75
2022/01/06 06:03:08;;;;;;;11.60;6.73;;;;;;;-143.84;85.33;45005.28;5029950;28;20452;-75
2022/01/06 06:05:36;;;;;;;15.70;7.63;;;;;;;-143.84;85.44;44961.47;5030112;28;20955;-76
2022/01/06 06:08:04;;;;;;;18.20;7.30;;;;;;;-143.84;85.51;44991.94;5029534;28;20843;-75
2022/01/06 06:10:31;;;;;;;14.83;6.93;;;;;;;-143.84;85.53;45010.97;5029420;28;20503;-75
2022/01/06 06:12:58;;;;;;;12.70;7.17;;;;;;;-143.84;85.65;44982.41;5029173;28;20509;-75
2022/01/06 06:15:26;;;;;;;13.47;7.03;;;;;;;-143.84;85.37;45007.19;5028499;28;20555;-77
2022/01/06 06:17:53;;;;;;;14.40;7.73;;;;;;;-143.84;85.14;45005.28;5011689;28;20538;-75
2022/01/06 06:20:20;;;;;;;14.10;7.80;;;;;;;-143.84;85.31;45016.69;5030106;28;20437;-75
2022/01/06 06:22:49;;;;;;;13.63;7.00;;;;;;;-143.84;85.14;45014.78;5015324;28;20443;-75
2022/01/06 06:25:16;;;;;;;15.20;6.57;;;;;;;-143.84;85.08;44988.13;5032654;28;21074;-74
2022/01/06 06:27:43;;;;;;;22.30;6.80;;;;;;;-143.84;85.10;44988.13;5032666;28;20436;-75
2022/01/06 06:30:12;;;;;;;20.73;8.43;;;;;;;-143.84;85.11;45009.09;5020448;28;20461;-75
2022/01/06 06:32:39;;;;;;;16.13;7.40;;;;;;;-143.84;84.91;45014.78;5020686;28;20458;-75
2022/01/06 06:35:07;;;;;;;13.03;7.10;;;;;;;-143.84;85.25;44997.66;5025512;28;20517;-75
2022/01/06 06:37:35;;;;;;;12.90;7.63;;;;;;;-143.84;84.89;45003.38;5021238;28;20462;-80
2022/01/06 06:40:05;;;;;;;20.60;7.90;;;;;;;-143.84;84.85;45026.22;5028385;28;20449;-80
2022/01/06 06:42:32;;;;;;;10.67;8.57;;;;;;;-143.84;84.56;45007.19;5027924;28;20443;-80
2022/01/06 06:44:59;;;;;;;12.43;7.10;;;;;;;-143.84;84.42;45049.06;5023653;28;20450;-80
2022/01/06 06:47:27;;;;;;;11.53;7.30;;;;;;;-143.84;83.57;45035.75;5032717;28;20445;-80
2022/01/06 06:49:56;;;;;;;19.57;7.63;;;;;;;-143.84;83.12;45033.84;5038149;28;20439;-81
2022/01/06 06:52:23;;;;;;;14.40;7.50;;;;;;;-143.84;82.75;45028.13;5022448;28;20953;-81
2022/01/06 06:54:50;;;;;;;18.13;8.50;;;;;;;-143.84;82.46;45052.88;5027733;28;20528;-79
2022/01/06 06:57:19;;;;;;;16.60;8.43;;;;;;;-143.84;82.54;45014.78;5022837;28;20444;-78
2022/01/06 06:59:46;;;;;;;12.97;8.70;;;;;;;-143.84;82.18;45052.88;5022604;28;20492;-79
2022/01/06 07:02:13;;;;;;;19.13;8.13;;;;;;;-143.84;81.70;45090.97;5025920;28;20456;-78
2022/01/06 07:04:41;;;;;;;11.47;6.67;;;;;;;-143.84;81.34;45062.41;5021772;28;20466;-79
2022/01/06 07:07:08;;;;;;;18.27;8.33;;;;;;;-143.84;80.73;45068.13;5028736;28;20465;-78
2022/01/06 07:09:35;;;;;;;14.33;6.60;;;;;;;-143.84;80.44;45066.22;5007859;28;20453;-77
2022/01/06 07:12:03;;;;;;;14.17;7.30;;;;;;;-143.84;80.05;45056.69;5033356;28;20461;-78
2022/01/06 07:14:31;;;;;;;11.77;7.10;;;;;;;-143.84;79.97;45060.50;5029268;28;20494;-78
2022/01/06 07:16:59;;;;;;;20.33;6.67;;;;;;;-143.84;79.85;45077.63;5033021;28;20456;-78
2022/01/06 07:19:26;;;;;;;10.20;6.43;;;;;;;-143.84;79.56;45050.97;5032631;28;20476;-78
2022/01/06 07:21:53;;;;;;;16.73;7.00;;;;;;;-143.84;79.20;45064.31;5030266;28;20933;-78
2022/01/06 07:24:20;;;;;;;11.23;6.70;;;;;;;-143.84;79.05;45064.31;5032442;28;20549;-77
2022/01/06 07:26:47;;;;;;;18.37;7.57;;;;;;;-143.84;78.94;45075.72;5029740;28;20462;-79
2022/01/06 07:29:15;;;;;;;12.40;6.63;;;;;;;-143.84;78.68;45079.53;5027746;28;20454;-79
2022/01/06 07:31:43;;;;;;;15.03;7.87;;;;;;;-143.84;78.41;45094.78;5030234;28;20442;-78
2022/01/06 07:34:11;;;;;;;14.70;7.30;;;;;;;-143.84;78.28;45110.00;5031782;28;20466;-80
2022/01/06 07:36:38;;;;;;;14.87;5.70;;;;;;;-143.84;77.87;45068.13;5024504;28;20501;-79
2022/01/06 07:39:05;;;;;;;14.87;7.50;;;;;;;-143.84;77.79;45090.97;5030856;28;20448;-78
2022/01/06 07:41:33;;;;;;;13.17;6.57;;;;;;;-143.84;77.33;45064.31;5027332;28;20511;-78
2022/01/06 07:44:00;;;;;;;12.90;6.40;;;;;;;-143.84;76.82;45054.78;5020954;28;20454;-78
2022/01/06 07:46:27;;;;;;;16.83;7.83;;;;;;;-143.84;76.58;45085.25;5032015;28;20465;-78
2022/01/06 07:48:57;;;;;;;8.87;6.30;;;;;;;-143.84;76.46;45102.38;5031776;28;21144;-79
2022/01/06 07:51:25;;;;;;;14.90;6.43;;;;;;;-143.84;75.86;45077.63;5030095;28;20462;-79
2022/01/06 07:53:52;;;;;;;14.00;7.37;;;;;;;-143.84;75.69;45075.72;5029174;28;20994;-77
2022/01/06 07:56:19;;;;;;;18.07;10.60;;;;;;;-143.84;75.14;45064.31;5027506;28;20811;-76
2022/01/06 07:58:47;;;;;;;15.97;6.60;;;;;;;-143.84;74.28;45081.44;5027734;28;20948;-79
2022/01/06 08:01:15;;;;;;;13.20;6.67;;;;;;;-143.84;74.25;45092.88;5029544;28;20454;-79
2022/01/06 08:03:43;;;;;;;16.47;7.43;;;;;;;-143.84;74.04;45090.97;5028558;28;20450;-79
2022/01/06 08:06:12;;;;;;;14.40;7.23;;;;;;;-143.84;73.57;45071.91;5030020;28;20445;-79
2022/01/06 08:08:40;;;;;;;20.17;6.90;;;;;;;-143.84;72.85;45073.81;5025031;28;20481;-78
2022/01/06 08:11:07;;;;;;;14.67;6.50;;;;;;;-143.84;72.17;45081.44;5030623;28;20463;-79
2022/01/06 08:13:34;;;;;;;18.43;6.90;;;;;;;-143.84;71.62;45085.25;5028643;28;20953;-79
2022/01/06 08:16:01;;;;;;;13.13;6.17;;;;;;;-143.84;71.29;45092.88;5025501;28;20488;-74
2022/01/06 08:18:29;;;;;;;10.33;5.83;;;;;;;-143.84;71.32;45064.31;5031406;28;20453;-74
2022/01/06 08:20:56;;;;;;;10.63;6.33;;;;;;;-143.84;71.06;45064.31;5025772;28;20443;-75
2022/01/06 08:23:25;;;;;;;8.70;6.37;;;;;;;-143.84;70.70;45070.00;5026887;28;20455;-74
2022/01/06 08:25:52;;;;;;;17.97;7.07;;;;;;;-143.84;70.74;45058.59;5027187;28;20463;-78
2022/01/06 08:28:19;;;;;;;21.10;6.07;;;;;;;-143.84;70.43;45081.44;5027978;28;20449;-80
2022/01/06 08:30:48;;;;;;;10.27;6.27;;;;;;;-143.84;70.66;45090.97;5030519;28;20451;-79
2022/01/06 08:33:16;;;;;;;11.73;6.53;;;;;;;-143.84;70.36;45060.50;5029865;28;20444;-78
2022/01/06 08:35:43;;;;;;;16.43;6.40;;;;;;;-143.84;70.12;45075.72;5024184;28;20599;-79
2022/01/06 08:38:11;;;;;;;24.73;7.30;;;;;;;-143.84;70.23;45087.16;5028857;28;20464;-78
2022/01/06 08:40:39;;;;;;;13.13;6.67;;;;;;;-143.84;70.36;45090.97;5031367;28;20453;-78
2022/01/06 08:43:06;;;;;;;12.70;5.57;;;;;;;-143.84;69.83;45073.81;5031702;28;20446;-77
2022/01/06 08:45:34;;;;;;;9.10;5.87;;;;;;;-143.84;69.51;45090.97;5027833;28;20456;-78
2022/01/06 08:48:02;;;;;;;21.60;6.53;;;;;;;-143.84;69.32;45060.50;5031658;28;20938;-77
2022/01/06 08:50:29;;;;;;;20.53;6.87;;;;;;;-143.84;68.63;45062.41;5030814;28;21016;-83
2022/01/06 08:52:57;;;;;;;16.80;6.20;;;;;;;-143.84;68.02;45085.25;5031572;28;20528;-79
2022/01/06 08:55:26;;;;;;;12.33;6.67;;;;;;;-143.84;67.85;45056.69;5031378;28;20494;-79
2022/01/06 08:57:57;;;;;;;14.97;6.60;;;;;;;-143.84;67.58;45071.91;5031362;28;20773;-79
2022/01/06 09:00:24;;;;;;;13.40;6.87;;;;;;;-143.84;67.28;45083.34;5028105;28;20487;-79
2022/01/06 09:02:52;;;;;;;17.57;6.17;;;;;;;-143.84;67.39;45066.22;5021598;28;20445;-81
2022/01/06 09:05:19;;;;;;;22.07;8.10;;;;;;;-143.84;67.42;45079.53;5032954;28;20489;-80
2022/01/06 09:07:46;;;;;;;13.27;7.20;;;;;;;-143.84;67.18;45075.72;5031280;28;20445;-77
2022/01/06 09:10:13;;;;;;;10.30;6.00;;;;;;;-143.84;67.44;45075.72;5030420;28;20871;-77
2022/01/06 09:12:42;;;;;;;17.27;6.93;;;;;;;-143.84;67.30;45075.72;5030416;28;20454;-74
2022/01/06 09:15:11;;;;;;;15.97;6.90;;;;;;;-143.84;67.42;45062.41;5029348;28;21061;-73
2022/01/06 09:17:38;;;;;;;13.63;6.80;;;;;;;-143.84;66.87;45056.69;5011996;28;20884;-73
2022/01/06 09:20:07;;;;;;;12.10;7.13;;;;;;;-143.84;67.45;45064.31;5019767;28;20960;-77
2022/01/06 09:22:34;;;;;;;16.07;7.50;;;;;;;-143.84;67.49;45094.78;5030592;28;20496;-76
2022/01/06 09:25:02;;;;;;;11.97;6.50;;;;;;;-143.84;66.86;45049.06;5030507;28;20455;-76
2022/01/06 09:27:30;;;;;;;22.70;7.03;;;;;;;-143.84;66.72;45102.38;5030258;28;20446;-76
2022/01/06 09:29:57;;;;;;;22.27;6.87;;;;;;;-143.84;66.89;45090.97;5015257;28;20459;-77
2022/01/06 09:32:26;;;;;;;20.67;6.50;;;;;;;-143.84;66.93;45092.88;5025686;28;20471;-76
2022/01/06 09:34:53;;;;;;;16.67;6.77;;;;;;;-143.84;67.09;45054.78;5027051;28;20450;-76
2022/01/06 09:37:21;;;;;;;15.47;6.50;;;;;;;-143.84;66.51;45079.53;5021020;28;21014;-76
2022/01/06 09:39:50;;;;;;;16.10;6.17;;;;;;;-143.84;65.24;45043.34;5029467;28;20512;-76
2022/01/06 09:42:18;;;;;;;14.83;6.00;;;;;;;-143.84;64.79;45049.06;5029409;28;20454;-73
2022/01/06 09:44:47;;;;;;;25.73;7.87;;;;;;;-143.84;63.65;45068.13;5028676;28;20471;-73
2022/01/06 09:47:14;;;;;;;15.90;7.17;;;;;;;-143.84;63.14;45043.34;5029048;28;20511;-73
2022/01/06 09:49:44;;;;;;;12.53;6.40;;;;;;;-143.84;63.10;45054.78;5028858;28;20828;-74
2022/01/06 09:52:12;;;;;;;13.43;6.03;;;;;;;-143.84;61.44;45043.34;5028952;28;20458;-73
2022/01/06 09:54:41;;;;;;;18.53;6.10;;;;;;;-143.84;60.62;45058.59;5029194;28;20456;-73
2022/01/06 09:57:09;;;;;;;9.57;5.60;;;;;;;-143.84;60.37;45064.31;5032811;28;20552;-80
2022/01/06 09:59:36;;;;;;;18.20;10.50;;;;;;;-143.84;59.06;45089.06;5031992;28;20438;-76
2022/01/06 10:02:04;;;;;;;39.97;6.60;;;;;;;-143.84;58.90;45050.97;5027904;28;20987;-78
2022/01/06 10:04:31;;;;;;;14.13;6.00;;;;;;;-143.84;58.59;45083.34;5012332;28;20446;-73
2022/01/06 10:07:02;;;;;;;11.37;5.60;;;;;;;-143.84;58.53;45033.84;5034468;28;21011;-78
2022/01/06 10:09:29;;;;;;;12.10;5.80;;;;;;;-143.84;59.01;45026.22;5025385;28;20455;-78
2022/01/06 10:11:58;;;;;;;17.17;6.20;;;;;;;-143.84;57.66;45043.34;5020372;28;20442;-78
2022/01/06 10:14:32;;;;;;;11.97;5.20;;;;;;;-143.84;56.34;45056.69;5033467;28;21002;-74
2022/01/06 10:17:00;;;;;;;9.00;4.80;;;;;;;-143.84;54.52;45033.84;5034430;28;20469;-78
2022/01/06 10:19:28;;;;;;;13.40;5.00;;;;;;;-143.84;55.00;45058.59;5034244;28;20450;-76
2022/01/06 10:21:58;;;;;;;10.30;5.37;;;;;;;-143.84;54.80;45037.66;5033258;28;20991;-75
2022/01/06 10:24:28;;;;;;;16.10;5.47;;;;;;;-143.84;54.23;45043.34;5033155;28;20492;-76
2022/01/06 10:26:57;;;;;;;6.10;4.90;;;;;;;-143.84;54.14;45052.88;5034400;28;20500;-77
2022/01/06 10:29:27;;;;;;;6.37;4.20;;;;;;;-143.84;53.15;45033.84;5033606;28;20814;-77
2022/01/06 10:32:02;;;;;;;14.40;5.30;;;;;;;-143.84;53.52;45054.78;5032876;28;20481;-77
2022/01/06 10:34:31;;;;;;;15.30;5.50;;;;;;;-143.84;52.25;45052.88;5032574;28;20492;-73
2022/01/06 10:36:59;;;;;;;10.80;5.30;;;;;;;-143.84;51.09;45047.16;5013283;28;20573;-73
2022/01/06 10:39:29;;;;;;;19.10;5.07;;;;;;;-143.84;51.44;45039.53;5026570;28;20940;-76
2022/01/06 10:42:06;;;;;;;12.57;5.00;;;;;;;-143.84;51.07;45028.13;5032991;28;20446;-73
2022/01/06 10:44:33;;;;;;;46.13;32.17;;;;;;;-143.84;51.02;45050.97;5029967;28;21062;-77
2022/01/06 10:47:00;;;;;;;13.90;6.20;;;;;;;-143.84;51.01;45049.06;5031141;28;20533;-77
2022/01/06 10:49:32;;;;;;;7.57;4.70;;;;;;;-143.84;50.70;45047.16;5032936;28;20473;-78
2022/01/06 10:51:59;;;;;;;10.70;5.07;;;;;;;-143.84;49.99;45043.34;5036953;28;20508;-77
2022/01/06 10:54:29;;;;;;;16.90;5.73;;;;;;;-143.84;50.92;45035.75;5033067;28;20446;-79
2022/01/06 10:56:58;;;;;;;8.37;5.63;;;;;;;-143.84;49.30;45033.84;5045670;28;20488;-75
2022/01/06 10:59:31;;;;;;;15.70;6.07;;;;;;;-143.84;50.33;45035.75;5035220;28;20450;-77
2022/01/06 11:01:58;;;;;;;9.67;5.00;;;;;;;-143.84;48.81;45035.75;5035779;28;20462;-77
2022/01/06 11:04:25;;;;;;;9.13;5.20;;;;;;;-143.84;49.16;45022.41;5040956;28;20459;-77
2022/01/06 11:06:53;;;;;;;10.63;5.23;;;;;;;-143.84;49.74;45047.16;5046493;28;20974;-77
2022/01/06 11:09:20;;;;;;;11.57;5.10;;;;;;;-143.84;50.46;45077.63;5034123;28;20450;-78
2022/01/06 11:14:31;;;;;;;13.83;5.70;;;;;;;-143.84;50.46;45043.34;5018504;28;20580;-76
2022/01/06 11:16:58;;;;;;;7.57;4.33;;;;;;;-143.84;50.79;45071.91;5034068;28;20873;-76
2022/01/06 11:19:28;;;;;;;13.73;5.87;;;;;;;-143.84;51.56;45054.78;5033074;28;20442;-75
2022/01/06 11:22:01;;;;;;;21.37;5.73;;;;;;;-143.84;51.21;45054.78;5034014;28;20446;-75